sensor_id;sensor_type;location;lat;lon;timestamp;pressure;altitude;pressure_sealevel;temperature;humidity
26719;BME280;14326;50.794;6.060;2022-12-24T00:01:26;98867.69;;;10.74;100.00
26719;BME280;14326;50.794;6.060;2022-12-24T00:03:53;98874.78;;;10.78;100.00
26719;BME280;14326;50.794;6.060;2022-12-24T00:06:22;98879.22;;;10.74;100.00
26719;BME280;14326;50.794;6.060;2022-12-24T00:08:50;98883.66;;;10.75;100.00
26719;BME280;14326;50.794;6.060;2022-12-24T00:11:17;98873.00;;;10.80;100.00
26719;BME280;14326;50.794;6.060;2022-12-24T00:13:44;98878.31;;;10.83;100.00
26719;BME280;14326;50.794;6.060;2022-12-24T00:16:10;98878.31;;;10.80;100.00
26719;BME280;14326;50.794;6.060;2022-12-24T00:18:37;98871.22;;;10.83;100.00
26719;BME280;14326;50.794;6.060;2022-12-24T00:21:04;98872.13;;;10.82;100.00
26719;BME280;14326;50.794;6.060;2022-12-24T00:23:32;98868.53;;;10.88;100.00
26719;BME280;14326;50.794;6.060;2022-12-24T00:25:59;98873.84;;;10.85;100.00
26719;BME280;14326;50.794;6.060;2022-12-24T00:28:25;98872.09;;;10.85;100.00
26719;BME280;14326;50.794;6.060;2022-12-24T00:30:52;98883.59;;;10.86;100.00
26719;BME280;14326;50.794;6.060;2022-12-24T00:33:19;98884.53;;;10.83;100.00
26719;BME280;14326;50.794;6.060;2022-12-24T00:35:49;98896.94;;;10.83;100.00
26719;BME280;14326;50.794;6.060;2022-12-24T00:38:16;98903.16;;;10.82;100.00
26719;BME280;14326;50.794;6.060;2022-12-24T00:40:44;98898.72;;;10.76;100.00
26719;BME280;14326;50.794;6.060;2022-12-24T00:43:11;98892.53;;;10.70;100.00
26719;BME280;14326;50.794;6.060;2022-12-24T00:45:37;98900.53;;;10.63;100.00
26719;BME280;14326;50.794;6.060;2022-12-24T00:48:04;98911.19;;;10.65;100.00
26719;BME280;14326;50.794;6.060;2022-12-24T00:50:31;98903.19;;;10.60;100.00
26719;BME280;14326;50.794;6.060;2022-12-24T00:52:57;98909.41;;;10.58;100.00
26719;BME280;14326;50.794;6.060;2022-12-24T00:55:24;98916.50;;;10.59;100.00
26719;BME280;14326;50.794;6.060;2022-12-24T00:57:52;98915.59;;;10.61;100.00
26719;BME280;14326;50.794;6.060;2022-12-24T01:00:19;98917.41;;;10.58;100.00
26719;BME280;14326;50.794;6.060;2022-12-24T01:02:45;98928.91;;;10.63;100.00
26719;BME280;14326;50.794;6.060;2022-12-24T01:05:12;98935.09;;;10.60;100.00
26719;BME280;14326;50.794;6.060;2022-12-24T01:07:39;98931.56;;;10.63;100.00
26719;BME280;14326;50.794;6.060;2022-12-24T01:10:07;98939.53;;;10.63;100.00
26719;BME280;14326;50.794;6.060;2022-12-24T01:12:33;98931.59;;;10.60;100.00
26719;BME280;14326;50.794;6.060;2022-12-24T01:15:01;98941.31;;;10.62;100.00
26719;BME280;14326;50.794;6.060;2022-12-24T01:17:30;98944.00;;;10.59;100.00
26719;BME280;14326;50.794;6.060;2022-12-24T01:19:56;98945.75;;;10.54;100.00
26719;BME280;14326;50.794;6.060;2022-12-24T01:22:23;98951.09;;;10.45;100.00
26719;BME280;14326;50.794;6.060;2022-12-24T01:24:49;98947.56;;;10.46;100.00
26719;BME280;14326;50.794;6.060;2022-12-24T01:27:16;98949.31;;;10.44;100.00
26719;BME280;14326;50.794;6.060;2022-12-24T01:29:43;98956.41;;;10.39;100.00
26719;BME280;14326;50.794;6.060;2022-12-24T01:32:11;98959.06;;;10.39;100.00
26719;BME280;14326;50.794;6.060;2022-12-24T01:34:37;98967.03;;;10.38;100.00
26719;BME280;14326;50.794;6.060;2022-12-24T01:37:04;98961.75;;;10.36;100.00
26719;BME280;14326;50.794;6.060;2022-12-24T01:39:31;98964.38;;;10.38;100.00
26719;BME280;14326;50.794;6.060;2022-12-24T01:41:57;98967.06;;;10.30;100.00
26719;BME280;14326;50.794;6.060;2022-12-24T01:44:42;98971.50;;;10.30;100.00
26719;BME280;14326;50.794;6.060;2022-12-24T01:47:14;98974.16;;;10.36;100.00
26719;BME280;14326;50.794;6.060;2022-12-24T01:49:46;98975.94;;;10.37;100.00
26719;BME280;14326;50.794;6.060;2022-12-24T01:52:17;98970.59;;;10.38;100.00
26719;BME280;14326;50.794;6.060;2022-12-24T01:54:47;98973.28;;;10.37;100.00
26719;BME280;14326;50.794;6.060;2022-12-24T01:57:18;98973.25;;;10.40;100.00
26719;BME280;14326;50.794;6.060;2022-12-24T01:59:49;98968.81;;;10.43;100.00
26719;BME280;14326;50.794;6.060;2022-12-24T02:02:18;98986.53;;;10.44;100.00
26719;BME280;14326;50.794;6.060;2022-12-24T02:04:50;98996.28;;;10.45;100.00
26719;BME280;14326;50.794;6.060;2022-12-24T02:07:18;98988.31;;;10.45;100.00
26719;BME280;14326;50.794;6.060;2022-12-24T02:09:46;99003.38;;;10.45;100.00
26719;BME280;14326;50.794;6.060;2022-12-24T02:12:15;99004.28;;;10.39;100.00
26719;BME280;14326;50.794;6.060;2022-12-24T02:14:41;99001.59;;;10.33;100.00
26719;BME280;14326;50.794;6.060;2022-12-24T02:17:13;99006.91;;;10.25;100.00
26719;BME280;14326;50.794;6.060;2022-12-24T02:20:06;98993.66;;;10.18;100.00
26719;BME280;14326;50.794;6.060;2022-12-24T02:22:46;99006.88;;;10.12;100.00
26719;BME280;14326;50.794;6.060;2022-12-24T02:25:26;99013.13;;;10.17;100.00
26719;BME280;14326;50.794;6.060;2022-12-24T02:28:05;99018.41;;;10.11;100.00
26719;BME280;14326;50.794;6.060;2022-12-24T02:30:41;99002.44;;;9.99;100.00
26719;BME280;14326;50.794;6.060;2022-12-24T02:33:16;99016.59;;;9.98;100.00
26719;BME280;14326;50.794;6.060;2022-12-24T02:35:47;99013.94;;;9.93;100.00
26719;BME280;14326;50.794;6.060;2022-12-24T02:38:21;99021.03;;;9.94;100.00
26719;BME280;14326;50.794;6.060;2022-12-24T02:40:52;99024.56;;;9.92;100.00
26719;BME280;14326;50.794;6.060;2022-12-24T02:43:24;99025.44;;;9.92;100.00
26719;BME280;14326;50.794;6.060;2022-12-24T02:45:58;99037.84;;;9.96;100.00
26719;BME280;14326;50.794;6.060;2022-12-24T02:48:26;99039.63;;;9.97;100.00
26719;BME280;14326;50.794;6.060;2022-12-24T02:51:01;99053.81;;;9.95;100.00
26719;BME280;14326;50.794;6.060;2022-12-24T02:53:31;99045.78;;;9.90;100.00
26719;BME280;14326;50.794;6.060;2022-12-24T02:56:10;99033.41;;;9.83;100.00
26719;BME280;14326;50.794;6.060;2022-12-24T02:58:47;99026.28;;;9.74;100.00
26719;BME280;14326;50.794;6.060;2022-12-24T03:01:27;99036.88;;;9.64;100.00
26719;BME280;14326;50.794;6.060;2022-12-24T03:04:06;99014.72;;;9.60;100.00
26719;BME280;14326;50.794;6.060;2022-12-24T03:06:42;99028.00;;;9.56;100.00
26719;BME280;14326;50.794;6.060;2022-12-24T03:09:17;99027.13;;;9.57;100.00
26719;BME280;14326;50.794;6.060;2022-12-24T03:11:53;99043.03;;;9.55;100.00
26719;BME280;14326;50.794;6.060;2022-12-24T03:14:22;99046.59;;;9.60;100.00
26719;BME280;14326;50.794;6.060;2022-12-24T03:16:50;99053.69;;;9.64;100.00
26719;BME280;14326;50.794;6.060;2022-12-24T03:19:16;99050.16;;;9.68;100.00
26719;BME280;14326;50.794;6.060;2022-12-24T03:21:44;99048.38;;;9.61;100.00
26719;BME280;14326;50.794;6.060;2022-12-24T03:24:13;99072.25;;;9.58;100.00
26719;BME280;14326;50.794;6.060;2022-12-24T03:26:40;99058.00;;;9.42;100.00
26719;BME280;14326;50.794;6.060;2022-12-24T03:29:07;99061.53;;;9.35;100.00
26719;BME280;14326;50.794;6.060;2022-12-24T03:31:42;99057.97;;;9.29;100.00
26719;BME280;14326;50.794;6.060;2022-12-24T03:34:10;99072.06;;;9.20;100.00
26719;BME280;14326;50.794;6.060;2022-12-24T03:36:37;99075.59;;;9.18;100.00
26719;BME280;14326;50.794;6.060;2022-12-24T03:39:04;99083.53;;;9.15;100.00
26719;BME280;14326;50.794;6.060;2022-12-24T03:41:31;99076.47;;;9.17;100.00
26719;BME280;14326;50.794;6.060;2022-12-24T03:43:58;99077.38;;;9.17;100.00
26719;BME280;14326;50.794;6.060;2022-12-24T03:46:25;99073.84;;;9.18;100.00
26719;BME280;14326;50.794;6.060;2022-12-24T03:48:51;99071.16;;;9.17;100.00
26719;BME280;14326;50.794;6.060;2022-12-24T03:51:21;99086.25;;;9.22;100.00
26719;BME280;14326;50.794;6.060;2022-12-24T03:53:48;99072.13;;;9.29;100.00
26719;BME280;14326;50.794;6.060;2022-12-24T03:56:15;99066.84;;;9.35;100.00
26719;BME280;14326;50.794;6.060;2022-12-24T03:58:41;99074.88;;;9.46;100.00
26719;BME280;14326;50.794;6.060;2022-12-24T04:01:08;99080.19;;;9.55;100.00
26719;BME280;14326;50.794;6.060;2022-12-24T04:03:34;99074.88;;;9.55;100.00
26719;BME280;14326;50.794;6.060;2022-12-24T04:06:02;99068.72;;;9.61;100.00
26719;BME280;14326;50.794;6.060;2022-12-24T04:08:31;99081.13;;;9.63;100.00
26719;BME280;14326;50.794;6.060;2022-12-24T04:10:58;99076.72;;;9.67;100.00
26719;BME280;14326;50.794;6.060;2022-12-24T04:13:24;99082.06;;;9.74;100.00
26719;BME280;14326;50.794;6.060;2022-12-24T04:15:56;99078.53;;;9.77;100.00
26719;BME280;14326;50.794;6.060;2022-12-24T04:18:23;99090.94;;;9.76;100.00
26719;BME280;14326;50.794;6.060;2022-12-24T04:20:50;99084.75;;;9.85;100.00
26719;BME280;14326;50.794;6.060;2022-12-24T04:23:16;99084.75;;;9.82;100.00
26719;BME280;14326;50.794;6.060;2022-12-24T04:25:44;99091.84;;;9.86;100.00
26719;BME280;14326;50.794;6.060;2022-12-24T04:28:11;99091.00;;;9.95;100.00
26719;BME280;14326;50.794;6.060;2022-12-24T04:30:38;99092.72;;;9.91;100.00
26719;BME280;14326;50.794;6.060;2022-12-24T04:33:05;99096.28;;;9.92;100.00
26719;BME280;14326;50.794;6.060;2022-12-24T04:35:31;99090.09;;;9.97;100.00
26719;BME280;14326;50.794;6.060;2022-12-24T04:37:58;99077.69;;;9.93;100.00
26719;BME280;14326;50.794;6.060;2022-12-24T04:40:25;99082.09;;;9.86;100.00
26719;BME280;14326;50.794;6.060;2022-12-24T04:42:53;99087.41;;;9.82;100.00
26719;BME280;14326;50.794;6.060;2022-12-24T04:45:19;99089.19;;;9.86;100.00
26719;BME280;14326;50.794;6.060;2022-12-24T04:47:46;99103.34;;;9.82;100.00
26719;BME280;14326;50.794;6.060;2022-12-24T04:50:12;99103.34;;;9.83;100.00
26719;BME280;14326;50.794;6.060;2022-12-24T04:52:39;99108.63;;;9.80;100.00
26719;BME280;14326;50.794;6.060;2022-12-24T04:55:06;99108.66;;;9.82;100.00
26719;BME280;14326;50.794;6.060;2022-12-24T04:57:33;99107.75;;;9.80;100.00
26719;BME280;14326;50.794;6.060;2022-12-24T05:00:05;99106.88;;;9.84;100.00
26719;BME280;14326;50.794;6.060;2022-12-24T05:02:32;99116.63;;;9.86;100.00
26719;BME280;14326;50.794;6.060;2022-12-24T05:04:58;99121.06;;;9.88;100.00
26719;BME280;14326;50.794;6.060;2022-12-24T05:07:25;99113.09;;;9.91;100.00
26719;BME280;14326;50.794;6.060;2022-12-24T05:09:51;99120.19;;;9.92;100.00
26719;BME280;14326;50.794;6.060;2022-12-24T05:12:18;99117.53;;;9.92;100.00
26719;BME280;14326;50.794;6.060;2022-12-24T05:14:45;99106.94;;;9.95;100.00
26719;BME280;14326;50.794;6.060;2022-12-24T05:17:13;99113.13;;;9.94;100.00
26719;BME280;14326;50.794;6.060;2022-12-24T05:19:39;99114.91;;;9.95;100.00
26719;BME280;14326;50.794;6.060;2022-12-24T05:22:06;99113.13;;;9.94;100.00
26719;BME280;14326;50.794;6.060;2022-12-24T05:24:50;99123.75;;;9.94;100.00
26719;BME280;14326;50.794;6.060;2022-12-24T05:27:34;99128.19;;;9.98;100.00
26719;BME280;14326;50.794;6.060;2022-12-24T05:30:01;99127.28;;;9.97;100.00
26719;BME280;14326;50.794;6.060;2022-12-24T05:32:29;99129.06;;;9.95;100.00
26719;BME280;14326;50.794;6.060;2022-12-24T05:34:56;99135.25;;;9.97;100.00
26719;BME280;14326;50.794;6.060;2022-12-24T05:37:22;99133.50;;;9.98;100.00
26719;BME280;14326;50.794;6.060;2022-12-24T05:39:49;99137.06;;;10.00;100.00
26719;BME280;14326;50.794;6.060;2022-12-24T05:42:15;99137.06;;;10.00;100.00
26719;BME280;14326;50.794;6.060;2022-12-24T05:44:42;99136.16;;;9.98;100.00
26719;BME280;14326;50.794;6.060;2022-12-24T05:47:09;99134.41;;;10.01;100.00
26719;BME280;14326;50.794;6.060;2022-12-24T05:49:36;99136.19;;;10.07;100.00
26719;BME280;14326;50.794;6.060;2022-12-24T05:52:03;99148.56;;;10.05;100.00
26719;BME280;14326;50.794;6.060;2022-12-24T05:54:30;99153.88;;;10.00;100.00
26719;BME280;14326;50.794;6.060;2022-12-24T05:56:56;99152.09;;;10.02;100.00
26719;BME280;14326;50.794;6.060;2022-12-24T05:59:23;99159.19;;;10.02;100.00
26719;BME280;14326;50.794;6.060;2022-12-24T06:01:50;99153.88;;;10.02;100.00
26719;BME280;14326;50.794;6.060;2022-12-24T06:04:16;99155.66;;;10.00;100.00
26719;BME280;14326;50.794;6.060;2022-12-24T06:06:44;99167.16;;;9.99;100.00
26719;BME280;14326;50.794;6.060;2022-12-24T06:09:11;99168.03;;;9.98;100.00
26719;BME280;14326;50.794;6.060;2022-12-24T06:11:37;99171.59;;;10.00;100.00
26719;BME280;14326;50.794;6.060;2022-12-24T06:14:04;99168.94;;;10.00;100.00
26719;BME280;14326;50.794;6.060;2022-12-24T06:16:30;99180.44;;;9.99;100.00
26719;BME280;14326;50.794;6.060;2022-12-24T06:18:57;99176.03;;;10.01;100.00
26719;BME280;14326;50.794;6.060;2022-12-24T06:21:24;99183.09;;;9.99;100.00
26719;BME280;14326;50.794;6.060;2022-12-24T06:23:52;99177.78;;;9.99;100.00
26719;BME280;14326;50.794;6.060;2022-12-24T06:26:21;99191.03;;;9.96;100.00
26719;BME280;14326;50.794;6.060;2022-12-24T06:28:49;99193.69;;;9.96;100.00
26719;BME280;14326;50.794;6.060;2022-12-24T06:31:18;99183.97;;;9.96;100.00
26719;BME280;14326;50.794;6.060;2022-12-24T06:33:44;99185.75;;;9.97;100.00
26719;BME280;14326;50.794;6.060;2022-12-24T06:36:14;99184.88;;;9.95;100.00
26719;BME280;14326;50.794;6.060;2022-12-24T06:38:42;99191.06;;;9.97;100.00
26719;BME280;14326;50.794;6.060;2022-12-24T06:41:10;99199.03;;;9.97;100.00
26719;BME280;14326;50.794;6.060;2022-12-24T06:43:36;99204.34;;;9.97;100.00
26719;BME280;14326;50.794;6.060;2022-12-24T06:46:03;99201.69;;;9.97;100.00
26719;BME280;14326;50.794;6.060;2022-12-24T06:48:30;99199.00;;;9.96;100.00
26719;BME280;14326;50.794;6.060;2022-12-24T06:50:57;99204.34;;;9.97;100.00
26719;BME280;14326;50.794;6.060;2022-12-24T06:53:23;99212.28;;;9.96;100.00
26719;BME280;14326;50.794;6.060;2022-12-24T06:55:50;99204.31;;;9.93;100.00
26719;BME280;14326;50.794;6.060;2022-12-24T06:58:18;99219.41;;;9.98;100.00
26719;BME280;14326;50.794;6.060;2022-12-24T07:00:46;99209.66;;;9.94;100.00
26719;BME280;14326;50.794;6.060;2022-12-24T07:03:13;99215.84;;;9.95;100.00
26719;BME280;14326;50.794;6.060;2022-12-24T07:05:39;99223.81;;;9.96;100.00
26719;BME280;14326;50.794;6.060;2022-12-24T07:08:07;99208.78;;;9.98;100.00
26719;BME280;14326;50.794;6.060;2022-12-24T07:10:34;99208.81;;;10.01;100.00
26719;BME280;14326;50.794;6.060;2022-12-24T07:13:00;99215.00;;;10.00;100.00
26719;BME280;14326;50.794;6.060;2022-12-24T07:15:28;99207.00;;;9.97;100.00
26719;BME280;14326;50.794;6.060;2022-12-24T07:17:55;99225.56;;;9.93;100.00
26719;BME280;14326;50.794;6.060;2022-12-24T07:20:21;99220.25;;;9.91;100.00
26719;BME280;14326;50.794;6.060;2022-12-24T07:22:48;99230.88;;;9.96;100.00
26719;BME280;14326;50.794;6.060;2022-12-24T07:25:14;99223.81;;;9.95;100.00
26719;BME280;14326;50.794;6.060;2022-12-24T07:27:41;99232.66;;;9.97;100.00
26719;BME280;14326;50.794;6.060;2022-12-24T07:30:08;99235.31;;;9.94;100.00
26719;BME280;14326;50.794;6.060;2022-12-24T07:32:37;99236.22;;;9.94;100.00
26719;BME280;14326;50.794;6.060;2022-12-24T07:35:04;99234.44;;;9.93;100.00
26719;BME280;14326;50.794;6.060;2022-12-24T07:37:31;99236.19;;;9.93;100.00
26719;BME280;14326;50.794;6.060;2022-12-24T07:39:57;99245.09;;;10.04;100.00
26719;BME280;14326;50.794;6.060;2022-12-24T07:42:24;99242.44;;;10.02;100.00
26719;BME280;14326;50.794;6.060;2022-12-24T07:44:51;99246.88;;;10.00;100.00
26719;BME280;14326;50.794;6.060;2022-12-24T07:47:17;99246.84;;;9.99;100.00
26719;BME280;14326;50.794;6.060;2022-12-24T07:49:45;99246.84;;;9.99;100.00
26719;BME280;14326;50.794;6.060;2022-12-24T07:52:12;99253.06;;;10.02;100.00
26719;BME280;14326;50.794;6.060;2022-12-24T07:54:38;99258.38;;;10.02;100.00
26719;BME280;14326;50.794;6.060;2022-12-24T07:57:05;99254.00;;;10.06;100.00
26719;BME280;14326;50.794;6.060;2022-12-24T07:59:32;99255.75;;;10.08;100.00
26719;BME280;14326;50.794;6.060;2022-12-24T08:01:58;99267.25;;;10.04;100.00
26719;BME280;14326;50.794;6.060;2022-12-24T08:04:25;99270.81;;;10.06;100.00
26719;BME280;14326;50.794;6.060;2022-12-24T08:06:53;99275.25;;;10.06;100.00
26719;BME280;14326;50.794;6.060;2022-12-24T08:09:19;99259.28;;;10.07;100.00
26719;BME280;14326;50.794;6.060;2022-12-24T08:11:46;99262.84;;;10.09;100.00
26719;BME280;14326;50.794;6.060;2022-12-24T08:14:13;99275.25;;;10.10;100.00
26719;BME280;14326;50.794;6.060;2022-12-24T08:16:40;99274.38;;;10.11;100.00
26719;BME280;14326;50.794;6.060;2022-12-24T08:19:06;99280.66;;;10.18;100.00
26719;BME280;14326;50.794;6.060;2022-12-24T08:21:33;99286.84;;;10.20;100.00
26719;BME280;14326;50.794;6.060;2022-12-24T08:24:01;99297.50;;;10.20;100.00
26719;BME280;14326;50.794;6.060;2022-12-24T08:26:27;99297.53;;;10.26;100.00
26719;BME280;14326;50.794;6.060;2022-12-24T08:28:54;99300.25;;;10.35;100.00
26719;BME280;14326;50.794;6.060;2022-12-24T08:31:20;99308.25;;;10.41;100.00
26719;BME280;14326;50.794;6.060;2022-12-24T08:33:47;99301.16;;;10.45;100.00
26719;BME280;14326;50.794;6.060;2022-12-24T08:36:13;99301.19;;;10.48;100.00
26719;BME280;14326;50.794;6.060;2022-12-24T08:38:40;99302.94;;;10.46;100.00
26719;BME280;14326;50.794;6.060;2022-12-24T08:41:08;99309.16;;;10.48;100.00
26719;BME280;14326;50.794;6.060;2022-12-24T08:43:35;99305.63;;;10.47;100.00
26719;BME280;14326;50.794;6.060;2022-12-24T08:46:02;99309.19;;;10.52;100.00
26719;BME280;14326;50.794;6.060;2022-12-24T08:48:29;99307.44;;;10.57;100.00
26719;BME280;14326;50.794;6.060;2022-12-24T08:50:56;99310.97;;;10.53;100.00
26719;BME280;14326;50.794;6.060;2022-12-24T08:53:23;99309.19;;;10.55;100.00
26719;BME280;14326;50.794;6.060;2022-12-24T08:55:50;99314.50;;;10.57;100.00
26719;BME280;14326;50.794;6.060;2022-12-24T08:58:18;99323.38;;;10.56;100.00
26719;BME280;14326;50.794;6.060;2022-12-24T09:00:44;99334.91;;;10.53;100.00
26719;BME280;14326;50.794;6.060;2022-12-24T09:03:13;99336.69;;;10.59;100.00
26719;BME280;14326;50.794;6.060;2022-12-24T09:05:41;99337.56;;;10.53;100.00
26719;BME280;14326;50.794;6.060;2022-12-24T09:08:08;99324.25;;;10.55;100.00
26719;BME280;14326;50.794;6.060;2022-12-24T09:10:34;99332.22;;;10.56;100.00
26719;BME280;14326;50.794;6.060;2022-12-24T09:13:01;99347.28;;;10.54;100.00
26719;BME280;14326;50.794;6.060;2022-12-24T09:15:29;99350.84;;;10.55;100.00
26719;BME280;14326;50.794;6.060;2022-12-24T09:17:56;99350.84;;;10.55;100.00
26719;BME280;14326;50.794;6.060;2022-12-24T09:20:23;99350.00;;;10.65;100.00
26719;BME280;14326;50.794;6.060;2022-12-24T09:22:50;99357.09;;;10.63;100.00
26719;BME280;14326;50.794;6.060;2022-12-24T09:25:16;99362.41;;;10.67;100.00
26719;BME280;14326;50.794;6.060;2022-12-24T09:27:43;99363.31;;;10.68;100.00
26719;BME280;14326;50.794;6.060;2022-12-24T09:30:10;99362.44;;;10.71;100.00
26719;BME280;14326;50.794;6.060;2022-12-24T09:32:38;99372.22;;;10.72;100.00
26719;BME280;14326;50.794;6.060;2022-12-24T09:35:05;99379.31;;;10.71;100.00
26719;BME280;14326;50.794;6.060;2022-12-24T09:37:32;99374.88;;;10.76;100.00
26719;BME280;14326;50.794;6.060;2022-12-24T09:39:59;99375.78;;;10.77;100.00
26719;BME280;14326;50.794;6.060;2022-12-24T09:42:36;99379.34;;;10.80;100.00
26719;BME280;14326;50.794;6.060;2022-12-24T09:45:15;99388.19;;;10.79;100.00
26719;BME280;14326;50.794;6.060;2022-12-24T09:47:47;99397.09;;;10.81;100.00
26719;BME280;14326;50.794;6.060;2022-12-24T09:50:25;99391.78;;;10.83;100.00
26719;BME280;14326;50.794;6.060;2022-12-24T09:52:54;99389.09;;;10.81;100.00
26719;BME280;14326;50.794;6.060;2022-12-24T09:55:26;99398.00;;;10.83;100.00
26719;BME280;14326;50.794;6.060;2022-12-24T09:57:54;99386.44;;;10.86;100.00
26719;BME280;14326;50.794;6.060;2022-12-24T10:00:26;99382.91;;;10.85;100.00
26719;BME280;14326;50.794;6.060;2022-12-24T10:02:54;99395.34;;;10.92;100.00
26719;BME280;14326;50.794;6.060;2022-12-24T10:05:29;99393.59;;;10.94;100.00
26719;BME280;14326;50.794;6.060;2022-12-24T10:08:07;99402.44;;;10.93;100.00
26719;BME280;14326;50.794;6.060;2022-12-24T10:10:41;99396.25;;;10.93;100.00
26719;BME280;14326;50.794;6.060;2022-12-24T10:13:16;99388.28;;;10.94;100.00
26719;BME280;14326;50.794;6.060;2022-12-24T10:15:55;99400.69;;;10.94;100.00
26719;BME280;14326;50.794;6.060;2022-12-24T10:18:34;99416.66;;;10.97;100.00
26719;BME280;14326;50.794;6.060;2022-12-24T10:21:09;99408.69;;;10.98;100.00
26719;BME280;14326;50.794;6.060;2022-12-24T10:23:42;99409.56;;;10.97;100.00
26719;BME280;14326;50.794;6.060;2022-12-24T10:26:14;99419.31;;;10.97;100.00
26719;BME280;14326;50.794;6.060;2022-12-24T10:28:47;99425.53;;;10.97;100.00
26719;BME280;14326;50.794;6.060;2022-12-24T10:31:18;99420.22;;;11.00;100.00
26719;BME280;14326;50.794;6.060;2022-12-24T10:33:53;99412.22;;;10.99;100.00
26719;BME280;14326;50.794;6.060;2022-12-24T10:36:26;99415.81;;;11.01;100.00
26719;BME280;14326;50.794;6.060;2022-12-24T10:38:53;99409.56;;;11.02;100.00
26719;BME280;14326;50.794;6.060;2022-12-24T10:41:20;99412.22;;;11.02;100.00
26719;BME280;14326;50.794;6.060;2022-12-24T10:43:48;99405.16;;;11.01;100.00
26719;BME280;14326;50.794;6.060;2022-12-24T10:46:17;99400.72;;;11.00;100.00
26719;BME280;14326;50.794;6.060;2022-12-24T10:48:52;99396.25;;;11.02;100.00
26719;BME280;14326;50.794;6.060;2022-12-24T10:51:23;99399.81;;;11.04;100.00
26719;BME280;14326;50.794;6.060;2022-12-24T10:53:55;99403.38;;;11.09;100.00
26719;BME280;14326;50.794;6.060;2022-12-24T10:56:24;99401.59;;;11.08;100.00
26719;BME280;14326;50.794;6.060;2022-12-24T10:58:52;99411.41;;;11.17;100.00
26719;BME280;14326;50.794;6.060;2022-12-24T11:01:20;99416.75;;;11.17;100.00
26719;BME280;14326;50.794;6.060;2022-12-24T11:03:59;99405.19;;;11.19;100.00
26719;BME280;14326;50.794;6.060;2022-12-24T11:06:26;99407.00;;;11.23;100.00
26719;BME280;14326;50.794;6.060;2022-12-24T11:08:52;99407.88;;;11.21;100.00
26719;BME280;14326;50.794;6.060;2022-12-24T11:11:20;99406.09;;;11.26;100.00
26719;BME280;14326;50.794;6.060;2022-12-24T11:13:52;99392.78;;;11.26;100.00
26719;BME280;14326;50.794;6.060;2022-12-24T11:16:25;99396.38;;;11.29;100.00
26719;BME280;14326;50.794;6.060;2022-12-24T11:18:56;99406.13;;;11.32;100.00
26719;BME280;14326;50.794;6.060;2022-12-24T11:21:25;99407.88;;;11.27;100.00
26719;BME280;14326;50.794;6.060;2022-12-24T11:23:55;99408.78;;;11.27;100.00
26719;BME280;14326;50.794;6.060;2022-12-24T11:26:24;99415.00;;;11.28;100.00
26719;BME280;14326;50.794;6.060;2022-12-24T11:29:14;99417.63;;;11.20;100.00
26719;BME280;14326;50.794;6.060;2022-12-24T11:31:42;99412.31;;;11.17;100.00
26719;BME280;14326;50.794;6.060;2022-12-24T11:34:24;99409.63;;;11.17;100.00
26719;BME280;14326;50.794;6.060;2022-12-24T11:36:53;99421.19;;;11.13;100.00
26719;BME280;14326;50.794;6.060;2022-12-24T11:39:22;99422.94;;;11.17;100.00
26719;BME280;14326;50.794;6.060;2022-12-24T11:41:50;99419.41;;;11.18;100.00
26719;BME280;14326;50.794;6.060;2022-12-24T11:44:24;99425.59;;;11.20;100.00
26719;BME280;14326;50.794;6.060;2022-12-24T11:46:52;99416.75;;;11.21;100.00
26719;BME280;14326;50.794;6.060;2022-12-24T11:49:27;99415.84;;;11.19;100.00
26719;BME280;14326;50.794;6.060;2022-12-24T11:52:18;99414.09;;;11.27;100.00
26719;BME280;14326;50.794;6.060;2022-12-24T11:55:02;99410.56;;;11.31;100.00
26719;BME280;14326;50.794;6.060;2022-12-24T11:57:40;99416.78;;;11.33;100.00
26719;BME280;14326;50.794;6.060;2022-12-24T12:00:10;99421.22;;;11.34;100.00
26719;BME280;14326;50.794;6.060;2022-12-24T12:02:38;99416.78;;;11.30;100.00
26719;BME280;14326;50.794;6.060;2022-12-24T12:05:10;99421.25;;;11.36;100.00
26719;BME280;14326;50.794;6.060;2022-12-24T12:07:38;99422.13;;;11.36;100.00
26719;BME280;14326;50.794;6.060;2022-12-24T12:10:09;99428.34;;;11.38;100.00
26719;BME280;14326;50.794;6.060;2022-12-24T12:12:42;99432.78;;;11.35;100.00
26719;BME280;14326;50.794;6.060;2022-12-24T12:15:10;99431.88;;;11.37;100.00
26719;BME280;14326;50.794;6.060;2022-12-24T12:17:41;99430.97;;;11.37;100.00
26719;BME280;14326;50.794;6.060;2022-12-24T12:20:13;99432.75;;;11.38;100.00
26719;BME280;14326;50.794;6.060;2022-12-24T12:22:45;99431.03;;;11.41;100.00
26719;BME280;14326;50.794;6.060;2022-12-24T12:25:20;99436.34;;;11.41;100.00
26719;BME280;14326;50.794;6.060;2022-12-24T12:27:50;99426.56;;;11.39;100.00
26719;BME280;14326;50.794;6.060;2022-12-24T12:30:20;99429.22;;;11.40;100.00
26719;BME280;14326;50.794;6.060;2022-12-24T12:32:51;99429.25;;;11.46;100.00
26719;BME280;14326;50.794;6.060;2022-12-24T12:35:23;99431.03;;;11.46;100.00
26719;BME280;14326;50.794;6.060;2022-12-24T12:38:00;99426.59;;;11.46;100.00
26719;BME280;14326;50.794;6.060;2022-12-24T12:40:51;99426.59;;;11.49;100.00
26719;BME280;14326;50.794;6.060;2022-12-24T12:43:31;99430.13;;;11.50;100.00
26719;BME280;14326;50.794;6.060;2022-12-24T12:46:10;99423.94;;;11.53;100.00
26719;BME280;14326;50.794;6.060;2022-12-24T12:48:53;99429.25;;;11.53;100.00
26719;BME280;14326;50.794;6.060;2022-12-24T12:51:29;99426.59;;;11.56;100.00
26719;BME280;14326;50.794;6.060;2022-12-24T12:56:50;99439.94;;;11.60;100.00
26719;BME280;14326;50.794;6.060;2022-12-24T12:59:24;99441.72;;;11.64;99.61
26719;BME280;14326;50.794;6.060;2022-12-24T13:02:01;99442.63;;;11.65;99.88
26719;BME280;14326;50.794;6.060;2022-12-24T13:04:54;99443.50;;;11.65;100.00
26719;BME280;14326;50.794;6.060;2022-12-24T13:07:44;99441.72;;;11.69;100.00